createdAt,value
2019-02-21T00:00:02.449Z,4.90
2019-02-21T00:05:24.517Z,4.93
2019-02-21T00:11:07.524Z,4.90
2019-02-21T00:13:43.574Z,4.80
2019-02-21T00:16:25.253Z,4.83
2019-02-21T00:18:54.633Z,5.40
2019-02-21T00:24:41.401Z,4.80
2019-02-21T00:27:15.995Z,5.33
2019-02-21T00:29:50.164Z,5.67
2019-02-21T00:32:22.663Z,5.77
2019-02-21T00:34:59.374Z,5.87
2019-02-21T00:37:38.515Z,6.10
2019-02-21T00:40:32.192Z,5.83
2019-02-21T00:43:06.511Z,5.77
2019-02-21T00:49:10.744Z,6.10
2019-02-21T00:51:58.725Z,6.30
2019-02-21T00:54:33.277Z,5.63
2019-02-21T00:57:15.343Z,5.80
2019-02-21T00:59:45.027Z,6.27
2019-02-21T01:02:14.385Z,6.30
2019-02-21T01:04:45.053Z,7.00
2019-02-21T01:07:13.502Z,7.30
2019-02-21T01:09:51.140Z,8.87
2019-02-21T01:12:19.516Z,9.67
2019-02-21T01:15:01.580Z,9.97
2019-02-21T01:17:29.635Z,11.90
2019-02-21T01:20:05.477Z,12.37
2019-02-21T01:22:34.282Z,12.47
2019-02-21T01:25:12.426Z,13.63
2019-02-21T01:27:41.126Z,14.13
2019-02-21T01:30:12.209Z,15.33
2019-02-21T01:32:40.746Z,15.87
2019-02-21T01:35:19.949Z,14.63
2019-02-21T01:37:48.357Z,15.87
2019-02-21T01:40:32.567Z,15.93
2019-02-21T01:43:04.993Z,16.47
2019-02-21T01:45:42.042Z,15.87
2019-02-21T01:48:11.985Z,16.77
2019-02-21T01:50:43.221Z,16.47
2019-02-21T01:53:27.642Z,15.00
2019-02-21T01:55:56.714Z,16.60
2019-02-21T01:58:26.774Z,16.63
2019-02-21T02:00:55.386Z,16.40
2019-02-21T02:03:30.910Z,16.13
2019-02-21T02:06:20.279Z,16.90
2019-02-21T02:08:48.740Z,17.07
2019-02-21T02:11:21.071Z,16.93
2019-02-21T02:13:52.797Z,18.17
2019-02-21T02:16:25.211Z,18.53
2019-02-21T02:18:58.730Z,17.80
2019-02-21T02:21:31.484Z,18.03
2019-02-21T02:24:03.648Z,16.63
2019-02-21T02:26:31.758Z,16.67
2019-02-21T02:29:01.059Z,16.90
2019-02-21T02:31:37.828Z,16.67
2019-02-21T02:34:06.320Z,17.00
2019-02-21T02:36:35.552Z,17.00
2019-02-21T02:39:08.294Z,16.93
2019-02-21T02:41:38.117Z,17.10
2019-02-21T02:44:06.585Z,16.87
2019-02-21T02:46:35.031Z,16.80
2019-02-21T02:49:03.660Z,17.20
2019-02-21T02:51:32.245Z,16.43
2019-02-21T02:54:00.718Z,16.90
2019-02-21T02:56:29.476Z,16.87
2019-02-21T02:58:58.633Z,17.03
2019-02-21T03:01:34.792Z,17.07
2019-02-21T03:04:12.070Z,17.20
2019-02-21T03:06:40.439Z,17.60
2019-02-21T03:09:12.023Z,18.73
2019-02-21T03:11:54.046Z,18.37
2019-02-21T03:14:22.450Z,18.73
2019-02-21T03:16:53.328Z,18.87
2019-02-21T03:19:22.023Z,18.37
2019-02-21T03:22:12.018Z,19.57
2019-02-21T03:24:47.638Z,21.40
2019-02-21T03:27:18.582Z,21.30
2019-02-21T03:29:58.553Z,21.77
2019-02-21T03:32:27.177Z,22.27
2019-02-21T03:34:56.379Z,23.00
2019-02-21T03:37:24.793Z,22.53
2019-02-21T03:39:56.853Z,21.80
2019-02-21T03:42:25.109Z,22.23
2019-02-21T03:44:54.342Z,22.03
2019-02-21T03:47:26.346Z,21.77
2019-02-21T03:52:42.426Z,22.17
2019-02-21T03:57:41.525Z,22.60
2019-02-21T04:00:10.571Z,22.17
2019-02-21T04:02:50.273Z,23.10
2019-02-21T04:05:19.477Z,23.23
2019-02-21T04:07:48.193Z,21.73
2019-02-21T04:10:16.571Z,22.07
2019-02-21T04:12:45.483Z,22.57
2019-02-21T04:15:22.365Z,21.87
2019-02-21T04:17:50.458Z,22.57
2019-02-21T04:20:18.251Z,22.03
2019-02-21T04:22:46.559Z,21.97
2019-02-21T04:25:14.658Z,22.03
2019-02-21T04:27:43.523Z,21.93
2019-02-21T04:30:13.474Z,21.73
2019-02-21T04:32:42.061Z,22.13
2019-02-21T04:37:56.246Z,21.15
2019-02-21T04:40:24.382Z,23.67
2019-02-21T04:42:54.941Z,21.83
2019-02-21T04:45:23.805Z,24.27
2019-02-21T04:47:53.958Z,22.73
2019-02-21T04:50:22.661Z,23.30
2019-02-21T04:52:54.263Z,23.87
2019-02-21T04:55:24.317Z,23.70
2019-02-21T04:57:56.063Z,24.23
2019-02-21T05:00:26.030Z,24.97
2019-02-21T05:02:56.042Z,25.53
2019-02-21T05:05:27.312Z,25.77
2019-02-21T05:08:03.219Z,26.07
2019-02-21T05:10:32.778Z,27.70
2019-02-21T05:13:26.803Z,29.07
2019-02-21T05:16:02.175Z,28.83
2019-02-21T05:18:45.740Z,29.80
2019-02-21T05:21:33.551Z,30.47
2019-02-21T05:24:45.953Z,29.83
2019-02-21T05:27:43.514Z,31.37
2019-02-21T05:30:53.024Z,33.30
2019-02-21T05:34:01.267Z,34.13
2019-02-21T05:36:51.481Z,34.30
2019-02-21T05:39:37.404Z,35.43
2019-02-21T05:42:23.356Z,34.60
2019-02-21T05:45:13.899Z,36.07
2019-02-21T05:48:03.054Z,34.73
2019-02-21T05:50:51.048Z,34.57
2019-02-21T05:53:43.026Z,34.17
2019-02-21T05:56:31.063Z,36.27
2019-02-21T05:59:33.418Z,38.77
2019-02-21T06:02:35.639Z,37.93
2019-02-21T06:05:33.210Z,39.07
2019-02-21T06:08:24.593Z,37.93
2019-02-21T06:14:14.036Z,39.53
2019-02-21T06:16:58.216Z,40.60
2019-02-21T06:19:48.278Z,39.90
2019-02-21T06:22:36.554Z,39.53
2019-02-21T06:25:30.454Z,39.57
2019-02-21T06:28:19.800Z,58.13
2019-02-21T06:30:51.669Z,40.13
2019-02-21T06:33:19.299Z,39.87
2019-02-21T06:35:47.194Z,40.33
2019-02-21T06:38:14.888Z,41.53
2019-02-21T06:40:43.629Z,41.87
2019-02-21T06:43:11.402Z,43.87
2019-02-21T06:45:39.016Z,40.93
2019-02-21T06:48:06.681Z,41.53
2019-02-21T06:50:34.587Z,41.93
2019-02-21T06:53:02.233Z,43.20
2019-02-21T06:55:29.927Z,46.30
2019-02-21T06:57:57.549Z,44.90
2019-02-21T07:00:25.378Z,45.73
2019-02-21T07:02:54.379Z,43.73
2019-02-21T07:05:25.030Z,44.27
2019-02-21T07:07:52.667Z,45.17
2019-02-21T07:10:20.845Z,43.83
2019-02-21T07:12:48.953Z,43.90
2019-02-21T07:15:17.112Z,44.57
2019-02-21T07:17:49.623Z,56.30
2019-02-21T07:20:17.206Z,45.63
2019-02-21T07:22:47.813Z,44.37
2019-02-21T07:25:26.583Z,44.50
2019-02-21T07:27:54.634Z,42.63
2019-02-21T07:30:23.228Z,44.03
2019-02-21T07:32:51.517Z,44.63
2019-02-21T07:35:19.776Z,41.73
2019-02-21T07:37:47.934Z,44.23
2019-02-21T07:40:20.019Z,42.97
2019-02-21T07:42:51.175Z,42.33
2019-02-21T07:45:20.445Z,39.93
2019-02-21T07:47:48.758Z,42.13
2019-02-21T07:50:38.175Z,42.30
2019-02-21T07:53:06.252Z,41.27
2019-02-21T07:55:34.543Z,40.60
2019-02-21T07:58:04.005Z,39.27
2019-02-21T08:00:32.509Z,39.90
2019-02-21T08:03:00.905Z,39.17
2019-02-21T08:05:28.869Z,40.13
2019-02-21T08:07:56.943Z,41.30
2019-02-21T08:10:33.696Z,37.97
2019-02-21T08:12:57.255Z,39.03
2019-02-21T08:15:27.695Z,38.33
2019-02-21T08:17:57.955Z,39.10
2019-02-21T08:20:34.586Z,37.67
2019-02-21T08:22:58.343Z,39.17
2019-02-21T08:25:26.777Z,38.07
2019-02-21T08:27:54.749Z,38.33
2019-02-21T08:30:22.502Z,38.87
2019-02-21T08:33:05.963Z,37.53
2019-02-21T08:35:33.681Z,37.63
2019-02-21T08:38:02.849Z,40.47
2019-02-21T08:40:30.755Z,36.83
2019-02-21T08:42:58.717Z,36.73
2019-02-21T08:45:27.618Z,35.57
2019-02-21T08:47:56.768Z,32.43
2019-02-21T08:50:24.510Z,33.07
2019-02-21T08:52:52.579Z,33.57
2019-02-21T08:55:20.524Z,33.23
2019-02-21T08:57:48.468Z,33.83
2019-02-21T09:00:16.581Z,35.13
2019-02-21T09:02:44.370Z,34.40
2019-02-21T09:05:12.837Z,35.47
2019-02-21T09:07:40.677Z,35.93
2019-02-21T09:10:09.710Z,35.03
2019-02-21T09:12:39.544Z,33.07
2019-02-21T09:15:09.914Z,36.23
2019-02-21T09:17:38.074Z,36.27
2019-02-21T09:20:10.673Z,34.47
2019-02-21T09:22:40.719Z,36.77
2019-02-21T09:25:09.993Z,36.03
2019-02-21T09:27:38.370Z,36.33
2019-02-21T09:30:10.216Z,37.33
2019-02-21T09:32:38.208Z,38.33
2019-02-21T09:35:06.583Z,49.85
2019-02-21T09:37:34.358Z,51.50
2019-02-21T09:40:02.391Z,43.33
2019-02-21T09:42:30.256Z,43.17
2019-02-21T09:44:58.127Z,42.57
2019-02-21T09:47:26.010Z,41.37
2019-02-21T09:49:56.399Z,42.63
2019-02-21T09:52:23.366Z,45.13
2019-02-21T09:54:51.126Z,43.83
2019-02-21T09:57:18.890Z,42.70
2019-02-21T09:59:46.734Z,43.67
2019-02-21T10:02:14.485Z,45.00
2019-02-21T10:04:42.205Z,44.00
2019-02-21T10:07:11.494Z,45.50
2019-02-21T10:09:39.216Z,45.93
2019-02-21T10:12:07.546Z,47.37
2019-02-21T10:14:37.626Z,45.80
2019-02-21T10:17:06.110Z,45.83
2019-02-21T10:19:35.572Z,46.13
2019-02-21T10:22:04.984Z,44.60
2019-02-21T10:24:32.955Z,45.63
2019-02-21T10:27:00.744Z,45.00
2019-02-21T10:29:29.778Z,44.33
2019-02-21T10:31:57.782Z,44.73
2019-02-21T10:34:25.558Z,44.50
2019-02-21T10:36:53.341Z,43.13
2019-02-21T10:39:21.389Z,42.23
2019-02-21T10:41:49.716Z,43.83
2019-02-21T10:44:17.539Z,43.37
2019-02-21T10:46:45.387Z,43.00
2019-02-21T10:49:13.243Z,44.73
2019-02-21T10:51:40.981Z,41.50
2019-02-21T10:54:08.774Z,44.17
2019-02-21T10:56:36.769Z,45.27
2019-02-21T10:59:05.435Z,42.47
2019-02-21T11:01:33.400Z,42.87
2019-02-21T11:04:01.554Z,43.77
2019-02-21T11:06:29.523Z,42.83
2019-02-21T11:08:57.489Z,42.03
2019-02-21T11:11:25.580Z,42.67
2019-02-21T11:13:53.261Z,42.87
2019-02-21T11:16:21.136Z,48.23
2019-02-21T11:18:49.558Z,45.33
2019-02-21T11:21:17.448Z,41.60
2019-02-21T11:23:48.402Z,42.17
2019-02-21T11:26:18.542Z,39.93
2019-02-21T11:28:47.373Z,40.73
2019-02-21T11:31:15.906Z,41.50
2019-02-21T11:33:44.029Z,49.33
2019-02-21T11:36:11.789Z,44.67
2019-02-21T11:38:39.694Z,45.98
2019-02-21T11:41:07.476Z,42.83
2019-02-21T11:43:35.771Z,41.50
2019-02-21T11:46:03.912Z,40.67
2019-02-21T11:48:31.990Z,40.27
2019-02-21T11:50:59.932Z,41.37
2019-02-21T11:53:27.793Z,41.83
2019-02-21T11:55:56.975Z,41.33
2019-02-21T11:58:24.844Z,40.27
2019-02-21T12:00:52.850Z,38.47
2019-02-21T12:03:21.436Z,36.27
2019-02-21T12:05:52.788Z,38.37
2019-02-21T12:08:20.901Z,36.67
2019-02-21T12:10:50.898Z,36.37
2019-02-21T12:13:21.333Z,36.87
2019-02-21T12:15:49.024Z,33.93
2019-02-21T12:18:17.732Z,34.07
2019-02-21T12:20:46.352Z,34.57
2019-02-21T12:23:14.239Z,36.00
2019-02-21T12:25:42.229Z,34.10
2019-02-21T12:28:10.252Z,34.13
2019-02-21T12:30:38.004Z,35.80
2019-02-21T12:33:06.073Z,36.07
2019-02-21T12:35:34.144Z,34.43
2019-02-21T12:38:02.679Z,35.57
2019-02-21T12:40:30.986Z,35.23
2019-02-21T12:42:59.282Z,34.47
2019-02-21T12:45:29.422Z,33.93
2019-02-21T12:47:59.943Z,34.50
2019-02-21T12:50:28.003Z,31.60
2019-02-21T12:52:56.058Z,34.03
2019-02-21T12:55:29.415Z,34.83
2019-02-21T12:57:54.783Z,34.50
2019-02-21T13:00:23.273Z,45.30
2019-02-21T13:02:51.258Z,33.17
2019-02-21T13:05:19.093Z,28.80
2019-02-21T13:07:46.940Z,29.23
2019-02-21T13:10:19.871Z,29.33
2019-02-21T13:12:48.478Z,28.67
2019-02-21T13:15:16.465Z,26.73
2019-02-21T13:17:44.469Z,27.57
2019-02-21T13:20:12.952Z,36.50
2019-02-21T13:22:40.714Z,39.45
2019-02-21T13:25:09.465Z,30.73
2019-02-21T13:27:37.329Z,29.20
2019-02-21T13:30:11.968Z,27.33
2019-02-21T13:32:40.069Z,26.10
2019-02-21T13:35:08.110Z,24.80
2019-02-21T13:37:36.202Z,24.73
2019-02-21T13:40:05.454Z,24.90
2019-02-21T13:42:33.477Z,24.17
2019-02-21T13:45:01.522Z,25.33
2019-02-21T13:47:29.645Z,26.47
2019-02-21T13:49:59.091Z,26.30
2019-02-21T13:52:26.946Z,25.03
2019-02-21T13:54:55.112Z,24.23
2019-02-21T13:57:23.103Z,24.23
2019-02-21T13:59:51.251Z,24.23
2019-02-21T14:02:18.906Z,24.77
2019-02-21T14:04:46.613Z,25.60
2019-02-21T14:07:14.465Z,29.17
2019-02-21T14:09:42.546Z,24.73
2019-02-21T14:12:10.578Z,22.93
2019-02-21T14:14:38.286Z,21.93
2019-02-21T14:17:07.310Z,22.00
2019-02-21T14:19:35.136Z,19.93
2019-02-21T14:22:03.267Z,17.47
2019-02-21T14:24:36.916Z,17.40
2019-02-21T14:27:02.886Z,17.47
2019-02-21T14:29:38.839Z,18.87
2019-02-21T14:32:01.106Z,18.03
2019-02-21T14:34:29.375Z,22.17
2019-02-21T14:36:57.947Z,21.83
2019-02-21T14:39:26.301Z,22.33
2019-02-21T14:41:54.907Z,20.63
2019-02-21T14:44:22.970Z,20.50
2019-02-21T14:46:51.145Z,20.87
2019-02-21T14:49:19.754Z,17.87
2019-02-21T14:51:47.964Z,18.77
2019-02-21T14:54:16.680Z,21.00
2019-02-21T14:56:46.144Z,17.70
2019-02-21T14:59:14.292Z,17.63
2019-02-21T15:01:44.953Z,17.53
2019-02-21T15:04:13.647Z,17.23
2019-02-21T15:06:42.776Z,18.37
2019-02-21T15:09:16.044Z,17.57
2019-02-21T15:11:45.036Z,16.50
2019-02-21T15:14:21.082Z,16.70
2019-02-21T15:16:52.463Z,17.47
2019-02-21T15:19:23.354Z,16.93
2019-02-21T15:21:55.805Z,15.97
2019-02-21T15:24:26.068Z,16.50
2019-02-21T15:27:33.792Z,17.30
2019-02-21T15:30:07.659Z,17.77
2019-02-21T15:32:44.831Z,17.30
2019-02-21T15:35:19.664Z,18.43
2019-02-21T15:37:52.764Z,18.20
2019-02-21T15:40:22.921Z,18.67
2019-02-21T15:42:59.738Z,20.53
2019-02-21T15:45:33.479Z,21.03
2019-02-21T15:48:09.190Z,22.97
2019-02-21T15:50:45.563Z,22.27
2019-02-21T15:56:10.973Z,26.13
2019-02-21T15:58:49.361Z,25.87
2019-02-21T16:01:34.061Z,25.07
2019-02-21T16:04:11.428Z,26.93
2019-02-21T16:06:51.153Z,25.80
2019-02-21T16:09:16.624Z,27.00
2019-02-21T16:11:46.284Z,27.83
2019-02-21T16:14:19.682Z,29.30
2019-02-21T16:16:50.378Z,28.10
2019-02-21T16:19:19.213Z,29.17
2019-02-21T16:21:47.800Z,29.23
2019-02-21T16:24:17.123Z,28.00
2019-02-21T16:26:48.240Z,28.57
2019-02-21T16:29:17.069Z,23.80
2019-02-21T16:31:45.444Z,15.80
2019-02-21T16:34:19.955Z,14.90
2019-02-21T16:37:03.359Z,16.83
2019-02-21T16:39:31.851Z,15.13
2019-02-21T16:42:02.739Z,13.83
2019-02-21T16:44:31.312Z,14.60
2019-02-21T16:46:59.788Z,16.23
2019-02-21T16:49:27.690Z,13.70
2019-02-21T16:51:59.682Z,13.27
2019-02-21T16:54:34.166Z,14.03
2019-02-21T16:57:05.116Z,13.23
2019-02-21T16:59:40.045Z,14.07
2019-02-21T17:02:35.964Z,13.77
2019-02-21T17:05:07.459Z,13.70
2019-02-21T17:07:41.062Z,13.80
2019-02-21T17:10:11.333Z,13.90
2019-02-21T17:12:40.333Z,12.40
2019-02-21T17:15:17.733Z,13.47
2019-02-21T17:17:48.901Z,12.17
2019-02-21T17:20:20.325Z,11.97
2019-02-21T17:22:49.760Z,12.33
2019-02-21T17:25:21.825Z,13.13
2019-02-21T17:27:51.010Z,11.30
2019-02-21T17:30:19.975Z,10.73
2019-02-21T17:32:52.966Z,11.27
2019-02-21T17:35:23.299Z,10.87
2019-02-21T17:37:52.162Z,11.87
2019-02-21T17:40:22.142Z,11.90
2019-02-21T17:43:09.307Z,12.50
2019-02-21T17:45:45.069Z,13.63
2019-02-21T17:48:24.400Z,13.30
2019-02-21T17:53:28.950Z,14.77
2019-02-21T17:56:00.978Z,15.47
2019-02-21T17:58:32.291Z,16.43
2019-02-21T18:01:05.912Z,16.00
2019-02-21T18:03:35.591Z,17.80
2019-02-21T18:06:05.073Z,18.93
2019-02-21T18:08:37.366Z,18.17
2019-02-21T18:11:12.968Z,18.33
2019-02-21T18:13:45.743Z,19.33
2019-02-21T18:16:21.128Z,19.83
2019-02-21T18:18:51.896Z,19.93
2019-02-21T18:21:22.184Z,20.07
2019-02-21T18:24:03.056Z,20.33
2019-02-21T18:26:33.959Z,21.03
2019-02-21T18:29:04.593Z,22.27
2019-02-21T18:31:36.556Z,22.17
2019-02-21T18:34:10.256Z,24.20
2019-02-21T18:36:38.939Z,23.80
2019-02-21T18:39:16.446Z,24.20
2019-02-21T18:41:46.158Z,23.63
2019-02-21T18:44:20.906Z,25.20
2019-02-21T18:46:55.024Z,25.20
2019-02-21T18:49:32.588Z,25.63
2019-02-21T18:52:03.406Z,25.07
2019-02-21T18:54:32.153Z,26.63
2019-02-21T18:57:00.895Z,25.30
2019-02-21T18:59:31.882Z,26.13
2019-02-21T19:02:00.678Z,26.10
2019-02-21T19:04:30.060Z,24.67
2019-02-21T19:06:59.859Z,22.80
2019-02-21T19:09:31.351Z,23.83
2019-02-21T19:12:04.370Z,24.00
2019-02-21T19:17:07.502Z,23.27
2019-02-21T19:19:39.371Z,23.90
2019-02-21T19:22:08.449Z,24.53
2019-02-21T19:24:40.811Z,24.47
2019-02-21T19:27:36.863Z,24.13
2019-02-21T19:30:00.717Z,25.57
2019-02-21T19:32:34.201Z,25.97
2019-02-21T19:35:08.587Z,25.80
2019-02-21T19:37:37.642Z,28.13
2019-02-21T19:40:08.211Z,30.87
2019-02-21T19:45:25.101Z,30.70
2019-02-21T19:47:54.010Z,31.17
2019-02-21T19:50:23.920Z,29.37
2019-02-21T19:52:53.113Z,27.93
2019-02-21T19:55:25.978Z,30.70
2019-02-21T19:57:55.286Z,29.00
2019-02-21T20:00:25.741Z,31.13
2019-02-21T20:02:58.895Z,33.57
2019-02-21T20:05:34.097Z,35.37
2019-02-21T20:08:08.795Z,32.63
2019-02-21T20:10:35.762Z,32.00
2019-02-21T20:13:07.381Z,32.17
2019-02-21T20:15:41.874Z,31.87
2019-02-21T20:18:10.159Z,29.00
2019-02-21T20:20:38.548Z,27.37
2019-02-21T20:23:16.021Z,25.40
2019-02-21T20:25:45.345Z,24.10
2019-02-21T20:28:15.960Z,21.23
2019-02-21T20:30:46.505Z,19.73
2019-02-21T20:33:35.482Z,19.57
2019-02-21T20:36:08.672Z,20.13
2019-02-21T20:38:36.944Z,20.00
2019-02-21T20:41:06.861Z,20.50
2019-02-21T20:43:40.395Z,21.30
2019-02-21T20:46:11.746Z,20.37
2019-02-21T20:48:45.144Z,20.57
2019-02-21T20:51:17.090Z,21.87
2019-02-21T20:53:45.510Z,21.33
2019-02-21T20:56:13.480Z,21.33
2019-02-21T20:58:46.036Z,20.37
2019-02-21T21:01:15.282Z,21.00
2019-02-21T21:03:45.292Z,19.80
2019-02-21T21:06:15.103Z,20.97
2019-02-21T21:08:46.846Z,21.43
2019-02-21T21:11:18.390Z,20.93
2019-02-21T21:13:46.362Z,19.73
2019-02-21T21:16:15.241Z,18.90
2019-02-21T21:18:43.445Z,16.50
2019-02-21T21:21:30.800Z,16.17
2019-02-21T21:24:01.765Z,15.80
2019-02-21T21:26:31.036Z,14.20
2019-02-21T21:29:00.467Z,12.77
2019-02-21T21:31:29.197Z,12.23
2019-02-21T21:36:44.598Z,11.37
2019-02-21T21:39:12.890Z,12.13
2019-02-21T21:41:41.411Z,11.63
2019-02-21T21:44:10.018Z,11.20
2019-02-21T21:46:38.434Z,11.17
2019-02-21T21:49:06.847Z,11.47
2019-02-21T21:51:42.295Z,10.10
2019-02-21T21:54:10.399Z,10.27
2019-02-21T21:56:40.448Z,11.17
2019-02-21T21:59:08.624Z,10.43
2019-02-21T22:01:37.581Z,10.77
2019-02-21T22:04:07.585Z,10.77
2019-02-21T22:06:35.735Z,11.57
2019-02-21T22:09:08.290Z,11.30
2019-02-21T22:11:37.420Z,10.40
2019-02-21T22:14:06.513Z,11.33
2019-02-21T22:16:38.477Z,11.00
2019-02-21T22:19:07.213Z,12.57
2019-02-21T22:21:41.028Z,12.13
2019-02-21T22:24:09.398Z,12.47
2019-02-21T22:26:39.656Z,11.23
2019-02-21T22:29:08.263Z,12.33
2019-02-21T22:31:40.315Z,13.07
2019-02-21T22:34:14.572Z,13.10
2019-02-21T22:36:43.687Z,11.37
2019-02-21T22:39:16.293Z,11.90
2019-02-21T22:41:45.098Z,10.83
2019-02-21T22:44:15.260Z,10.80
2019-02-21T22:46:44.703Z,12.97
2019-02-21T22:49:12.551Z,13.57
2019-02-21T22:51:43.436Z,12.80
2019-02-21T22:54:11.634Z,12.37
2019-02-21T22:56:39.598Z,12.97
2019-02-21T22:59:09.979Z,11.30
2019-02-21T23:01:42.440Z,11.50
2019-02-21T23:04:33.437Z,10.30
2019-02-21T23:07:18.226Z,7.87
2019-02-21T23:09:46.883Z,7.90
2019-02-21T23:12:15.461Z,6.60
2019-02-21T23:14:50.578Z,7.23
2019-02-21T23:17:22.145Z,7.00
2019-02-21T23:19:50.176Z,6.17
2019-02-21T23:22:31.030Z,5.97
2019-02-21T23:25:05.897Z,5.77
2019-02-21T23:30:12.755Z,6.37
2019-02-21T23:32:44.036Z,5.87
2019-02-21T23:35:22.326Z,5.50
2019-02-21T23:37:53.475Z,5.27
2019-02-21T23:40:28.037Z,5.23
2019-02-21T23:43:03.192Z,7.07
2019-02-21T23:45:34.204Z,7.40
2019-02-21T23:48:02.477Z,7.60
2019-02-21T23:50:30.610Z,7.30
2019-02-21T23:53:03.748Z,7.27
2019-02-21T23:55:31.934Z,7.30
2019-02-21T23:58:00.242Z,7.37
